Merida, Venezuela
Current Conditions -  °F | °C
As of 7:00 PM on Wednesday 24 Dec 2014 (Local Time) from SVVG Reporting Station
Scattered Clouds Scattered Clouds  
Wind Chill: 86°   Ceiling: Unl
Heat Index: 95°   Visibility: 6mi
Dew Point: 75°   Wind: 0mph
Humidity: 70%   Direction: NA
Pressure: 29.74"   Gusts: NA
Location:  8.4°N, 71.13°W
Report Text: SVVG 242300Z 00000KT 9999 SCT017 30/24 Q1007
Loading
Personal Weather Stations






























Interactive Weather Map New forecast layout! Learn more

10-Day Weather Forecast

Advertisements
Track Severe Weather on mobile